Time;durP1;ratioP1;P1;durP2;ratioP2;P2;SDS_P1;SDS_P2;PMS_P1;PMS_P2;Temp;Humidity;BMP_temperature;BMP_pressure;BME280_temperature;BME280_humidity;BME280_pressure;Samples;Min_cycle;Max_cycle;Signal;HPM_P1;HPM_P2
2022/11/07 00:00:15;;;;;;;0.30;0.30;;;12.80;99.90;;;;;;5000929;28;20229;-62
2022/11/07 00:02:42;;;;;;;0.40;0.40;;;12.70;99.90;;;;;;5004314;28;20201;-64
2022/11/07 00:05:10;;;;;;;0.37;0.37;;;12.70;99.90;;;;;;5000579;28;20645;-61
2022/11/07 00:07:37;;;;;;;0.50;0.50;;;12.70;99.90;;;;;;5001149;28;20203;-63
2022/11/07 00:10:06;;;;;;;0.50;0.50;;;12.70;99.90;;;;;;5000740;28;20206;-63
2022/11/07 00:12:35;;;;;;;1.23;0.40;;;12.70;99.90;;;;;;5007915;28;20228;-63
2022/11/07 00:15:03;;;;;;;0.50;0.50;;;12.70;99.90;;;;;;5008277;28;22169;-63
2022/11/07 00:17:30;;;;;;;0.50;0.50;;;12.70;99.90;;;;;;5001927;28;20268;-62
2022/11/07 00:19:57;;;;;;;0.40;0.40;;;12.70;99.90;;;;;;5001748;28;20570;-62
2022/11/07 00:22:26;;;;;;;0.40;0.40;;;12.60;99.90;;;;;;4997494;28;20216;-62
2022/11/07 00:24:52;;;;;;;0.33;0.33;;;12.60;99.90;;;;;;5005257;28;20209;-61
2022/11/07 00:27:19;;;;;;;0.50;0.50;;;12.70;99.90;;;;;;5008689;28;20210;-62
2022/11/07 00:29:46;;;;;;;0.40;0.40;;;12.60;99.90;;;;;;4998602;28;20698;-63
2022/11/07 00:32:13;;;;;;;0.40;0.40;;;12.60;99.90;;;;;;5004477;28;20584;-62
2022/11/07 00:34:39;;;;;;;0.37;0.37;;;12.60;99.90;;;;;;4996074;28;20213;-62
2022/11/07 00:37:06;;;;;;;0.40;0.40;;;12.60;99.90;;;;;;5006084;28;20711;-62
2022/11/07 00:39:34;;;;;;;0.60;0.60;;;12.60;99.90;;;;;;5000324;28;20230;-62
2022/11/07 00:42:01;;;;;;;0.43;0.43;;;12.60;99.90;;;;;;5002882;28;20242;-62
2022/11/07 00:44:28;;;;;;;0.30;0.30;;;12.60;99.90;;;;;;5006361;28;20197;-62
2022/11/07 00:46:55;;;;;;;0.60;0.60;;;12.50;99.90;;;;;;5004847;28;20631;-62
2022/11/07 00:49:22;;;;;;;0.60;0.60;;;12.50;99.90;;;;;;5005217;28;20202;-62
2022/11/07 00:51:48;;;;;;;1.03;0.37;;;12.50;99.90;;;;;;5001862;28;20232;-62
2022/11/07 00:54:15;;;;;;;0.50;0.50;;;12.50;99.90;;;;;;5004820;28;20206;-62
2022/11/07 00:56:43;;;;;;;0.40;0.40;;;12.50;99.90;;;;;;5004515;28;20320;-62
2022/11/07 00:59:11;;;;;;;0.47;0.47;;;12.50;99.90;;;;;;5002012;28;20644;-63
2022/11/07 01:01:38;;;;;;;0.60;0.60;;;12.40;99.90;;;;;;5003728;28;20222;-63
2022/11/07 01:06:50;;;;;;;0.67;0.50;;;12.50;99.90;;;;;;4999062;28;20668;-63
2022/11/07 01:09:19;;;;;;;0.20;0.20;;;12.40;99.90;;;;;;4998528;28;20206;-64
2022/11/07 01:11:48;;;;;;;0.40;0.40;;;12.40;99.90;;;;;;5004245;28;20233;-63
2022/11/07 01:14:17;;;;;;;0.40;0.40;;;12.50;99.90;;;;;;5006047;28;20205;-63
2022/11/07 01:16:44;;;;;;;0.50;0.50;;;12.50;99.90;;;;;;5000448;28;20232;-62
2022/11/07 01:19:11;;;;;;;0.53;0.53;;;12.50;99.90;;;;;;5006176;28;20205;-62
2022/11/07 01:21:39;;;;;;;0.97;0.60;;;12.50;99.90;;;;;;5005307;28;20223;-62
2022/11/07 01:24:07;;;;;;;0.50;0.50;;;12.50;99.90;;;;;;5009855;28;20213;-62
2022/11/07 01:26:34;;;;;;;0.30;0.30;;;12.50;99.90;;;;;;5006371;28;20202;-63
2022/11/07 01:29:02;;;;;;;0.30;0.30;;;12.60;99.90;;;;;;5003008;28;20202;-63
2022/11/07 01:31:30;;;;;;;0.60;0.60;;;12.60;99.90;;;;;;5011627;28;20225;-62
2022/11/07 01:33:57;;;;;;;0.60;0.60;;;12.60;99.90;;;;;;5003859;28;20214;-62
2022/11/07 01:36:23;;;;;;;0.57;0.57;;;12.60;99.90;;;;;;5012916;28;20225;-62
2022/11/07 01:38:50;;;;;;;0.40;0.40;;;12.60;99.90;;;;;;5006171;28;20208;-62
2022/11/07 01:41:24;;;;;;;0.50;0.50;;;12.70;99.90;;;;;;5011106;28;20233;-62
2022/11/07 01:43:54;;;;;;;0.40;0.40;;;12.60;99.90;;;;;;5005985;28;20707;-62
2022/11/07 01:46:26;;;;;;;0.47;0.47;;;12.70;99.90;;;;;;5012662;28;20201;-63
2022/11/07 01:49:03;;;;;;;0.53;0.53;;;12.70;99.90;;;;;;5007600;28;20202;-62
2022/11/07 01:51:33;;;;;;;0.37;0.37;;;12.70;99.90;;;;;;5007205;28;20225;-63
2022/11/07 01:54:01;;;;;;;0.53;0.53;;;12.70;99.90;;;;;;5009259;28;20284;-62
2022/11/07 01:56:33;;;;;;;1.13;0.50;;;12.70;99.90;;;;;;5009096;28;20627;-62
2022/11/07 01:59:01;;;;;;;0.30;0.30;;;12.70;99.90;;;;;;5012510;28;20218;-62
2022/11/07 02:01:29;;;;;;;0.40;0.40;;;12.70;99.90;;;;;;5007814;28;20721;-62
2022/11/07 02:03:58;;;;;;;0.50;0.50;;;12.60;99.90;;;;;;5003695;28;20209;-62
2022/11/07 02:06:31;;;;;;;0.50;0.50;;;12.60;99.90;;;;;;5015480;28;20197;-61
2022/11/07 02:08:58;;;;;;;0.43;0.43;;;12.60;99.90;;;;;;5016564;28;20586;-63
2022/11/07 02:11:25;;;;;;;0.60;0.60;;;12.60;99.90;;;;;;5015645;28;20708;-62
2022/11/07 02:13:52;;;;;;;0.40;0.40;;;12.60;99.90;;;;;;5014941;28;20201;-62
2022/11/07 02:16:18;;;;;;;0.60;0.60;;;12.60;99.90;;;;;;5011668;28;20205;-62
2022/11/07 02:18:47;;;;;;;0.50;0.50;;;12.70;99.90;;;;;;5007821;28;20220;-63
2022/11/07 02:21:26;;;;;;;0.80;0.80;;;12.60;99.90;;;;;;5012442;28;20225;-62
2022/11/07 02:23:58;;;;;;;0.40;0.40;;;12.60;99.90;;;;;;5005531;28;20204;-62
2022/11/07 02:26:27;;;;;;;0.50;0.50;;;12.60;99.90;;;;;;5000017;28;20200;-62
2022/11/07 02:28:56;;;;;;;0.60;0.50;;;12.60;99.90;;;;;;5008724;28;20213;-63
2022/11/07 02:31:24;;;;;;;0.50;0.50;;;12.60;99.90;;;;;;5013866;28;20259;-62
2022/11/07 02:33:50;;;;;;;0.40;0.40;;;12.60;99.90;;;;;;5008607;28;20206;-63
2022/11/07 02:36:21;;;;;;;0.47;0.47;;;12.60;99.90;;;;;;5013182;28;20229;-63
2022/11/07 02:38:56;;;;;;;0.60;0.60;;;12.60;99.90;;;;;;5014131;28;20202;-62
2022/11/07 02:41:25;;;;;;;0.50;0.50;;;12.50;99.90;;;;;;5009775;28;20217;-62
2022/11/07 02:43:56;;;;;;;0.53;0.53;;;12.50;99.90;;;;;;5012963;28;20205;-61
2022/11/07 02:46:24;;;;;;;0.60;0.60;;;12.50;99.90;;;;;;5014312;28;20204;-64
2022/11/07 02:48:54;;;;;;;0.70;0.70;;;12.60;99.90;;;;;;5014123;28;20216;-64
2022/11/07 02:51:21;;;;;;;0.77;0.77;;;12.60;99.90;;;;;;5008685;28;20700;-62
2022/11/07 02:53:48;;;;;;;0.60;0.60;;;12.60;99.90;;;;;;5013048;28;20660;-62
2022/11/07 02:56:14;;;;;;;0.40;0.40;;;12.60;99.90;;;;;;5013607;28;20213;-62
2022/11/07 02:58:41;;;;;;;0.70;0.70;;;12.70;99.90;;;;;;5013424;28;20676;-62
2022/11/07 03:01:11;;;;;;;0.70;0.70;;;12.70;99.90;;;;;;5013696;28;20225;-63
2022/11/07 03:03:40;;;;;;;0.70;0.70;;;12.70;99.90;;;;;;5012575;28;20680;-61
2022/11/07 03:06:09;;;;;;;0.50;0.50;;;12.70;99.90;;;;;;5013453;28;20204;-62
2022/11/07 03:08:36;;;;;;;0.63;0.63;;;12.70;99.90;;;;;;5013589;28;20202;-61
2022/11/07 03:11:04;;;;;;;0.60;0.60;;;12.70;99.90;;;;;;5012868;28;20236;-62
2022/11/07 03:13:31;;;;;;;0.40;0.40;;;12.70;99.90;;;;;;5012757;28;20208;-63
2022/11/07 03:15:57;;;;;;;0.57;0.40;;;12.70;99.90;;;;;;5013539;28;20229;-63
2022/11/07 03:18:26;;;;;;;0.50;0.50;;;12.70;99.90;;;;;;5013449;28;20212;-63
2022/11/07 03:20:53;;;;;;;0.50;0.50;;;12.70;99.90;;;;;;5013539;28;20256;-63
2022/11/07 03:23:20;;;;;;;0.40;0.40;;;12.70;99.90;;;;;;5012872;28;20206;-62
2022/11/07 03:25:47;;;;;;;0.60;0.60;;;12.70;99.90;;;;;;5002171;28;20206;-62
2022/11/07 03:28:13;;;;;;;0.40;0.40;;;12.70;99.90;;;;;;5017620;28;20201;-63
2022/11/07 03:30:40;;;;;;;0.50;0.50;;;12.80;99.90;;;;;;5013309;28;20240;-62
2022/11/07 03:33:07;;;;;;;0.67;0.67;;;12.80;99.90;;;;;;5012295;28;20564;-65
2022/11/07 03:35:36;;;;;;;0.50;0.50;;;12.80;99.90;;;;;;5013355;28;20209;-63
2022/11/07 03:38:03;;;;;;;0.60;0.60;;;12.80;99.90;;;;;;5012628;28;20235;-63
2022/11/07 03:40:29;;;;;;;0.47;0.47;;;12.80;99.90;;;;;;5018830;28;20270;-63
2022/11/07 03:42:56;;;;;;;0.60;0.60;;;12.70;99.90;;;;;;5017334;28;20212;-65
2022/11/07 03:45:23;;;;;;;0.50;0.50;;;12.70;99.90;;;;;;5011720;28;20201;-63
2022/11/07 03:47:50;;;;;;;0.70;0.70;;;12.70;99.90;;;;;;5012606;28;20215;-63
2022/11/07 03:50:19;;;;;;;0.47;0.47;;;12.70;99.90;;;;;;5010843;28;20708;-62
2022/11/07 03:52:48;;;;;;;0.40;0.40;;;12.60;99.90;;;;;;5009314;28;20212;-64
2022/11/07 03:55:17;;;;;;;0.60;0.60;;;12.60;99.90;;;;;;5012258;28;20209;-64
2022/11/07 03:57:44;;;;;;;0.60;0.60;;;12.60;99.90;;;;;;5012729;28;20316;-63
2022/11/07 04:00:13;;;;;;;0.50;0.50;;;12.60;99.90;;;;;;5012700;28;20765;-62
2022/11/07 04:02:40;;;;;;;0.70;0.70;;;12.60;99.90;;;;;;5012732;28;20201;-65
2022/11/07 04:05:07;;;;;;;0.60;0.60;;;12.50;99.90;;;;;;5011999;28;20205;-65
2022/11/07 04:07:35;;;;;;;0.70;0.70;;;12.50;99.90;;;;;;5012475;28;20610;-64
2022/11/07 04:10:04;;;;;;;0.70;0.70;;;12.50;99.90;;;;;;5012461;28;20219;-62
2022/11/07 04:17:59;;;;;;;0.60;0.60;;;12.50;99.90;;;;;;5021642;28;20227;-63
2022/11/07 04:20:27;;;;;;;0.67;0.67;;;12.50;99.90;;;;;;5014129;28;20225;-63
2022/11/07 04:22:53;;;;;;;0.60;0.60;;;12.50;99.90;;;;;;5012450;28;20213;-62
2022/11/07 04:27:41;;;;;;;0.50;0.50;;;12.60;99.90;;;;;;5014453;28;20217;-62
2022/11/07 04:28:07;;;;;;;0.67;0.67;;;12.60;99.90;;;;;;5014368;28;20205;-63
2022/11/07 04:30:34;;;;;;;0.60;0.60;;;12.60;99.90;;;;;;5011634;28;20867;-63
2022/11/07 04:33:02;;;;;;;0.93;0.70;;;12.60;99.90;;;;;;5008740;28;20201;-62
2022/11/07 04:35:30;;;;;;;0.60;0.60;;;12.60;99.90;;;;;;5009121;28;20209;-63
2022/11/07 04:37:58;;;;;;;1.33;0.80;;;12.60;99.90;;;;;;5012403;28;20240;-63
2022/11/07 04:40:26;;;;;;;0.47;0.47;;;12.60;99.90;;;;;;5011862;28;20749;-62
2022/11/07 04:42:54;;;;;;;0.50;0.50;;;12.60;99.90;;;;;;5011921;28;20205;-63
2022/11/07 04:45:21;;;;;;;0.70;0.70;;;12.60;99.90;;;;;;5010564;28;20574;-63
2022/11/07 04:47:48;;;;;;;0.80;0.80;;;12.60;99.90;;;;;;5012340;28;20201;-65
2022/11/07 04:50:16;;;;;;;0.63;0.63;;;12.50;99.90;;;;;;5019735;28;20719;-63
2022/11/07 04:52:44;;;;;;;0.50;0.50;;;12.50;99.90;;;;;;5012241;28;20209;-64
2022/11/07 04:55:18;;;;;;;0.60;0.60;;;12.50;99.90;;;;;;5011409;28;20227;-64
2022/11/07 04:57:47;;;;;;;0.70;0.70;;;12.50;99.90;;;;;;5014865;28;20223;-63
2022/11/07 05:00:15;;;;;;;1.00;0.90;;;12.50;99.90;;;;;;5016121;28;20221;-63
2022/11/07 05:02:41;;;;;;;0.60;0.60;;;12.30;99.90;;;;;;5016352;28;20205;-63
2022/11/07 05:05:09;;;;;;;0.80;0.80;;;12.30;99.90;;;;;;5015676;28;20292;-64
2022/11/07 05:07:36;;;;;;;0.60;0.60;;;12.30;99.90;;;;;;5016140;28;20208;-63
2022/11/07 05:10:03;;;;;;;0.90;0.90;;;12.20;99.90;;;;;;5018965;28;20227;-63
2022/11/07 05:12:30;;;;;;;0.70;0.70;;;12.20;99.90;;;;;;5023132;28;20212;-63
2022/11/07 05:14:59;;;;;;;0.80;0.80;;;12.10;99.90;;;;;;5019772;28;20579;-63
2022/11/07 05:17:26;;;;;;;0.70;0.70;;;12.20;99.90;;;;;;5014448;28;20228;-64
2022/11/07 05:19:53;;;;;;;0.70;0.70;;;12.20;99.90;;;;;;5015823;28;20209;-63
2022/11/07 05:25:04;;;;;;;0.73;0.73;;;12.20;99.90;;;;;;5022198;28;20216;-62
2022/11/07 05:27:30;;;;;;;0.90;0.90;;;12.30;99.90;;;;;;5015628;28;20205;-64
2022/11/07 05:29:58;;;;;;;0.77;0.77;;;12.30;99.90;;;;;;5015740;28;20216;-62
2022/11/07 05:32:25;;;;;;;1.00;0.90;;;12.30;99.90;;;;;;5006604;28;20201;-63
2022/11/07 05:34:52;;;;;;;0.77;0.77;;;12.30;99.90;;;;;;5011859;28;20202;-62
2022/11/07 05:37:19;;;;;;;0.70;0.70;;;12.40;99.90;;;;;;5010184;28;20319;-62
2022/11/07 05:39:46;;;;;;;0.50;0.50;;;12.40;99.90;;;;;;5012138;28;20217;-63
2022/11/07 05:42:12;;;;;;;0.50;0.50;;;12.40;99.90;;;;;;5013330;28;20703;-63
2022/11/07 05:44:39;;;;;;;0.63;0.63;;;12.40;99.90;;;;;;5014822;28;20205;-63
2022/11/07 05:47:07;;;;;;;4.93;0.77;;;12.30;99.90;;;;;;5018476;28;20205;-63
2022/11/07 05:49:34;;;;;;;0.60;0.60;;;12.30;99.90;;;;;;5017599;28;20679;-64
2022/11/07 05:52:01;;;;;;;0.70;0.70;;;12.20;99.90;;;;;;5016698;28;20244;-63
2022/11/07 05:54:29;;;;;;;0.93;0.80;;;12.30;99.90;;;;;;5009848;28;20204;-62
2022/11/07 05:56:57;;;;;;;0.90;0.90;;;12.20;99.90;;;;;;5022795;28;20225;-65
2022/11/07 05:59:23;;;;;;;1.07;1.07;;;12.30;99.90;;;;;;5015319;28;20201;-63
2022/11/07 06:01:51;;;;;;;0.80;0.80;;;12.40;99.90;;;;;;5020553;28;20235;-64
2022/11/07 06:04:19;;;;;;;0.80;0.80;;;12.20;99.90;;;;;;5013398;28;20201;-63
2022/11/07 06:06:46;;;;;;;0.80;0.80;;;12.30;99.90;;;;;;5014812;28;20201;-64
2022/11/07 06:09:13;;;;;;;0.80;0.80;;;12.30;99.90;;;;;;5013833;28;20206;-64
2022/11/07 06:11:39;;;;;;;0.63;0.63;;;12.30;99.90;;;;;;5014523;28;20245;-63
2022/11/07 06:14:06;;;;;;;0.80;0.80;;;12.30;99.90;;;;;;5013555;28;20213;-62
2022/11/07 06:16:33;;;;;;;0.70;0.70;;;12.30;99.90;;;;;;5014216;28;20652;-64
2022/11/07 06:19:01;;;;;;;0.70;0.70;;;12.20;99.90;;;;;;5012208;28;20217;-64
2022/11/07 06:21:29;;;;;;;0.70;0.70;;;12.20;99.90;;;;;;5011550;28;20272;-62
2022/11/07 06:23:56;;;;;;;1.40;0.90;;;12.20;99.90;;;;;;5015391;28;20205;-63
2022/11/07 06:26:22;;;;;;;0.70;0.70;;;12.30;99.90;;;;;;5013134;28;20594;-62
2022/11/07 06:28:49;;;;;;;0.93;0.90;;;12.30;99.90;;;;;;5008461;28;20292;-63
2022/11/07 06:31:16;;;;;;;0.87;0.87;;;12.20;99.90;;;;;;5007382;28;20598;-63
2022/11/07 06:33:43;;;;;;;1.17;0.80;;;12.20;99.90;;;;;;5007356;28;20209;-62
2022/11/07 06:36:12;;;;;;;0.80;0.80;;;12.20;99.90;;;;;;5002163;28;20209;-63
2022/11/07 06:38:40;;;;;;;0.77;0.77;;;12.30;99.90;;;;;;5006443;28;20583;-64
2022/11/07 06:41:09;;;;;;;0.80;0.80;;;12.30;99.90;;;;;;5005702;28;20304;-62
2022/11/07 06:43:36;;;;;;;0.80;0.80;;;12.30;99.90;;;;;;4996679;28;20206;-63
2022/11/07 06:46:04;;;;;;;0.80;0.80;;;12.30;99.90;;;;;;5003090;28;20210;-63
2022/11/07 06:48:31;;;;;;;2.23;0.80;;;12.30;99.90;;;;;;5003496;28;20220;-65
2022/11/07 06:50:59;;;;;;;0.93;0.93;;;12.30;99.90;;;;;;5005864;28;20232;-63
2022/11/07 06:53:26;;;;;;;0.87;0.87;;;12.30;99.90;;;;;;5002956;28;20207;-63
2022/11/07 06:55:55;;;;;;;1.00;1.00;;;12.30;99.90;;;;;;5000100;28;20201;-64
2022/11/07 06:58:22;;;;;;;0.80;0.80;;;12.30;99.90;;;;;;5004301;28;20872;-63
2022/11/07 07:00:49;;;;;;;1.33;1.00;;;12.40;99.90;;;;;;5001504;28;20228;-63
2022/11/07 07:03:16;;;;;;;0.87;0.87;;;12.40;99.90;;;;;;5014377;28;20205;-63
2022/11/07 07:05:42;;;;;;;0.93;0.90;;;12.40;99.90;;;;;;5014528;28;20205;-64
2022/11/07 07:08:11;;;;;;;0.87;0.87;;;12.40;99.90;;;;;;5013752;28;20240;-64
2022/11/07 07:10:41;;;;;;;1.40;1.30;;;12.50;99.90;;;;;;5012798;28;20243;-63
2022/11/07 07:13:09;;;;;;;0.83;0.83;;;12.40;99.90;;;;;;5009825;28;20198;-63
2022/11/07 07:15:37;;;;;;;0.90;0.90;;;12.40;99.90;;;;;;5013929;28;20206;-63
2022/11/07 07:18:04;;;;;;;0.97;0.97;;;12.50;99.90;;;;;;5009161;28;20312;-62
2022/11/07 07:20:31;;;;;;;1.00;1.00;;;12.50;99.90;;;;;;5013134;28;20225;-63
2022/11/07 07:22:58;;;;;;;0.80;0.80;;;12.50;99.90;;;;;;5019515;28;20589;-63
2022/11/07 07:25:25;;;;;;;0.93;0.93;;;12.50;99.90;;;;;;5010309;28;20200;-62
2022/11/07 07:27:52;;;;;;;0.83;0.83;;;12.50;99.90;;;;;;5008933;28;20209;-62
2022/11/07 07:30:20;;;;;;;1.57;1.47;;;12.60;99.90;;;;;;5004308;28;20217;-63
2022/11/07 07:32:47;;;;;;;0.87;0.87;;;12.70;99.90;;;;;;5012105;28;20205;-63
2022/11/07 07:35:14;;;;;;;0.70;0.70;;;12.70;99.90;;;;;;5008753;28;20202;-62
2022/11/07 07:37:41;;;;;;;0.80;0.80;;;12.80;99.90;;;;;;4999619;28;20309;-63
2022/11/07 07:40:09;;;;;;;1.00;1.00;;;12.80;99.90;;;;;;5019594;28;20205;-63
2022/11/07 07:42:41;;;;;;;0.93;0.80;;;12.90;99.90;;;;;;5014677;28;20211;-63
2022/11/07 07:45:10;;;;;;;0.97;0.90;;;12.90;99.90;;;;;;5012084;28;20209;-61
2022/11/07 07:47:39;;;;;;;0.80;0.80;;;12.90;99.90;;;;;;5003006;28;20206;-62
2022/11/07 07:50:08;;;;;;;0.77;0.77;;;13.00;99.90;;;;;;5008576;28;20297;-63
2022/11/07 07:52:35;;;;;;;0.70;0.70;;;13.10;99.90;;;;;;4999111;28;20209;-63
2022/11/07 07:55:02;;;;;;;0.87;0.87;;;13.30;99.90;;;;;;5021958;28;20211;-63
2022/11/07 07:57:29;;;;;;;0.90;0.90;;;13.30;99.90;;;;;;5013040;28;20271;-63
2022/11/07 07:59:56;;;;;;;0.83;0.83;;;13.30;99.90;;;;;;5012571;28;20581;-62
2022/11/07 08:02:23;;;;;;;1.00;1.00;;;13.30;99.90;;;;;;5007958;28;20228;-62
2022/11/07 08:04:51;;;;;;;0.70;0.70;;;13.40;99.90;;;;;;5004157;28;20237;-62
2022/11/07 08:07:17;;;;;;;0.90;0.90;;;13.50;99.90;;;;;;5010789;28;20198;-63
2022/11/07 08:09:44;;;;;;;1.07;1.00;;;13.50;99.90;;;;;;5005270;28;20220;-63
2022/11/07 08:12:11;;;;;;;0.80;0.80;;;13.50;99.90;;;;;;5006882;28;20276;-63
2022/11/07 08:14:38;;;;;;;0.87;0.70;;;13.60;99.90;;;;;;5005927;28;20575;-64
2022/11/07 08:17:05;;;;;;;1.13;1.00;;;13.70;99.90;;;;;;5003843;28;20201;-64
2022/11/07 08:19:32;;;;;;;0.90;0.90;;;13.80;99.90;;;;;;5000497;28;20230;-62
2022/11/07 08:22:00;;;;;;;0.80;0.80;;;13.90;99.90;;;;;;4999916;28;20766;-63
2022/11/07 08:24:27;;;;;;;0.90;0.90;;;14.10;99.90;;;;;;4998904;28;20707;-61
2022/11/07 08:26:53;;;;;;;0.90;0.90;;;14.30;99.90;;;;;;5000966;28;20197;-62
2022/11/07 08:29:20;;;;;;;0.90;0.90;;;14.40;99.90;;;;;;5002107;28;20214;-63
2022/11/07 08:31:49;;;;;;;0.80;0.80;;;14.50;99.90;;;;;;4998312;28;20229;-63
2022/11/07 08:34:16;;;;;;;0.90;0.90;;;14.60;99.90;;;;;;5003011;28;20202;-63
2022/11/07 08:36:43;;;;;;;0.83;0.83;;;14.80;99.90;;;;;;5002668;28;20201;-62
2022/11/07 08:39:11;;;;;;;0.80;0.80;;;14.80;99.90;;;;;;5002173;28;20696;-62
2022/11/07 08:41:38;;;;;;;0.60;0.60;;;14.80;99.90;;;;;;5002228;28;20264;-62
2022/11/07 08:44:07;;;;;;;1.10;1.00;;;14.90;99.90;;;;;;5004850;28;20674;-62
2022/11/07 08:46:34;;;;;;;0.90;0.90;;;15.00;99.90;;;;;;5001920;28;20226;-62
2022/11/07 08:49:01;;;;;;;0.77;0.70;;;15.00;99.90;;;;;;5000416;28;20198;-62
2022/11/07 08:51:28;;;;;;;0.90;0.90;;;15.10;99.90;;;;;;5002483;28;20221;-63
2022/11/07 08:53:55;;;;;;;1.13;1.00;;;15.10;99.90;;;;;;4998906;28;20202;-63
2022/11/07 08:56:23;;;;;;;0.80;0.80;;;15.10;99.90;;;;;;4999870;28;20217;-62
2022/11/07 08:58:50;;;;;;;1.00;1.00;;;15.10;99.90;;;;;;5001433;28;20697;-63
2022/11/07 09:01:17;;;;;;;0.80;0.80;;;15.10;99.90;;;;;;5001913;28;20222;-62
2022/11/07 09:03:43;;;;;;;0.90;0.90;;;15.10;99.90;;;;;;5002966;28;20205;-62
2022/11/07 09:06:11;;;;;;;0.97;0.80;;;15.10;99.90;;;;;;5001858;28;20201;-62
2022/11/07 09:08:39;;;;;;;1.00;0.80;;;15.20;99.90;;;;;;4999470;28;20554;-62
2022/11/07 09:11:06;;;;;;;0.60;0.60;;;15.20;99.90;;;;;;5002643;28;20230;-63
2022/11/07 09:13:35;;;;;;;0.80;0.80;;;15.10;99.90;;;;;;5000097;28;20685;-63
2022/11/07 09:16:04;;;;;;;1.03;0.77;;;15.10;99.90;;;;;;5002584;28;20737;-63
2022/11/07 09:18:32;;;;;;;0.60;0.60;;;15.00;99.90;;;;;;5001817;28;20419;-64
2022/11/07 09:20:59;;;;;;;0.70;0.70;;;15.00;99.90;;;;;;5002810;28;20312;-63
2022/11/07 09:23:26;;;;;;;0.67;0.67;;;15.00;99.90;;;;;;5002701;28;20208;-63
2022/11/07 09:25:53;;;;;;;0.80;0.80;;;15.00;99.90;;;;;;5003051;28;20903;-63
2022/11/07 09:28:20;;;;;;;0.63;0.63;;;15.00;99.90;;;;;;5003241;28;20201;-64
2022/11/07 09:30:53;;;;;;;1.10;1.00;;;15.10;99.90;;;;;;4999401;28;20222;-65
2022/11/07 09:33:20;;;;;;;0.70;0.70;;;15.10;99.90;;;;;;5002602;28;20208;-63
2022/11/07 09:35:47;;;;;;;1.00;0.90;;;15.10;99.90;;;;;;4997586;28;20198;-63
2022/11/07 09:38:14;;;;;;;0.70;0.70;;;15.10;99.90;;;;;;5000536;28;20704;-63
2022/11/07 09:40:48;;;;;;;0.67;0.67;;;15.20;99.90;;;;;;5005589;28;20243;-62
2022/11/07 09:43:38;;;;;;;0.70;0.70;;;15.20;99.90;;;;;;5004983;28;20583;-66
2022/11/07 09:46:16;;;;;;;0.90;0.90;;;15.30;99.90;;;;;;5007001;28;20198;-64
2022/11/07 09:48:48;;;;;;;0.67;0.67;;;15.30;99.90;;;;;;5006938;28;20209;-62
2022/11/07 09:51:29;;;;;;;0.80;0.80;;;15.30;99.90;;;;;;5005471;28;20232;-62
2022/11/07 09:53:59;;;;;;;0.70;0.70;;;15.40;99.90;;;;;;5004509;28;20225;-62
2022/11/07 09:56:29;;;;;;;0.70;0.70;;;15.50;99.90;;;;;;5001895;28;20212;-62
2022/11/07 09:58:58;;;;;;;0.60;0.60;;;15.50;99.90;;;;;;5005682;28;20696;-62
2022/11/07 10:01:31;;;;;;;0.87;0.87;;;15.60;99.90;;;;;;5007234;28;20227;-62
2022/11/07 10:03:58;;;;;;;1.00;1.00;;;15.60;99.90;;;;;;5006468;28;20204;-62
2022/11/07 10:06:27;;;;;;;0.87;0.87;;;15.60;99.90;;;;;;5012238;28;20596;-63
2022/11/07 10:09:06;;;;;;;0.80;0.80;;;15.60;99.90;;;;;;5003842;28;20285;-62
2022/11/07 10:11:36;;;;;;;0.60;0.60;;;15.60;99.90;;;;;;5003269;28;20261;-62
2022/11/07 10:14:15;;;;;;;0.90;0.90;;;15.70;99.90;;;;;;5012442;28;20219;-62
2022/11/07 10:16:53;;;;;;;0.77;0.77;;;15.80;99.90;;;;;;5008276;28;20204;-62
2022/11/07 10:19:30;;;;;;;0.67;0.67;;;15.80;99.90;;;;;;5024519;28;20225;-64
2022/11/07 10:22:08;;;;;;;0.77;0.77;;;16.00;99.90;;;;;;5027934;28;20224;-64
2022/11/07 10:25:14;;;;;;;0.70;0.70;;;15.80;99.90;;;;;;5025371;28;20211;-63
2022/11/07 10:27:41;;;;;;;0.70;0.70;;;15.80;99.90;;;;;;5016305;28;20205;-64
2022/11/07 10:30:17;;;;;;;0.70;0.70;;;15.80;99.90;;;;;;5013410;28;20216;-63
2022/11/07 10:32:57;;;;;;;0.60;0.60;;;15.80;99.90;;;;;;5019560;28;20275;-63
2022/11/07 10:35:31;;;;;;;0.57;0.57;;;15.90;99.90;;;;;;5030617;28;20197;-62
2022/11/07 10:38:01;;;;;;;0.87;0.80;;;16.00;99.90;;;;;;5017337;28;20205;-62
2022/11/07 10:40:34;;;;;;;0.63;0.63;;;16.10;99.90;;;;;;5014627;28;20704;-64
2022/11/07 10:43:05;;;;;;;1.27;1.00;;;16.20;99.90;;;;;;5016437;28;20198;-62
2022/11/07 10:45:32;;;;;;;0.90;0.90;;;16.50;99.90;;;;;;5004598;28;20908;-63
2022/11/07 10:48:03;;;;;;;0.80;0.80;;;16.70;99.90;;;;;;5014252;28;20323;-62
2022/11/07 10:50:30;;;;;;;0.60;0.60;;;16.90;99.90;;;;;;5018009;28;20220;-65
2022/11/07 10:52:59;;;;;;;0.73;0.73;;;16.90;99.90;;;;;;5021685;28;20206;-64
2022/11/07 10:55:28;;;;;;;0.60;0.60;;;16.90;99.90;;;;;;5013186;28;20211;-62
2022/11/07 10:57:59;;;;;;;1.20;0.60;;;16.80;99.90;;;;;;5007687;28;20206;-63
2022/11/07 11:00:28;;;;;;;0.80;0.80;;;16.80;99.90;;;;;;5015820;28;20233;-63
2022/11/07 11:02:56;;;;;;;0.80;0.77;;;16.80;99.90;;;;;;5014192;28;20243;-62
2022/11/07 11:05:28;;;;;;;0.73;0.70;;;16.80;99.90;;;;;;5007395;28;20202;-64
2022/11/07 11:07:56;;;;;;;0.67;0.67;;;17.00;99.90;;;;;;5006069;28;20198;-64
2022/11/07 11:10:25;;;;;;;1.03;0.80;;;17.20;99.90;;;;;;5008536;28;20245;-63
2022/11/07 11:12:52;;;;;;;0.70;0.70;;;17.30;99.90;;;;;;5004678;28;20225;-63
2022/11/07 11:15:21;;;;;;;0.63;0.63;;;17.30;99.90;;;;;;5001325;28;20699;-63
2022/11/07 11:17:58;;;;;;;0.67;0.67;;;17.20;99.90;;;;;;5003389;28;20280;-64
2022/11/07 11:20:36;;;;;;;0.70;0.70;;;17.20;99.90;;;;;;5004962;28;20217;-64
2022/11/07 11:23:05;;;;;;;0.73;0.70;;;17.10;99.90;;;;;;5004182;28;20292;-63
2022/11/07 11:25:43;;;;;;;0.73;0.73;;;17.10;99.90;;;;;;5006662;28;21171;-62
2022/11/07 11:28:19;;;;;;;0.60;0.60;;;17.10;99.90;;;;;;5004549;28;20548;-62
2022/11/07 11:30:50;;;;;;;1.10;0.80;;;17.20;99.90;;;;;;5000495;28;20236;-63
2022/11/07 11:33:22;;;;;;;0.60;0.60;;;17.10;99.90;;;;;;5007650;28;20209;-64
2022/11/07 11:35:56;;;;;;;0.63;0.60;;;17.30;99.90;;;;;;5002080;28;20198;-63
2022/11/07 11:38:26;;;;;;;0.80;0.80;;;17.40;99.90;;;;;;5004149;28;20221;-63
2022/11/07 11:40:59;;;;;;;0.90;0.90;;;17.50;99.90;;;;;;5005943;28;20321;-65
2022/11/07 11:43:31;;;;;;;0.80;0.80;;;17.50;99.90;;;;;;5003796;28;20206;-63
2022/11/07 11:46:07;;;;;;;0.70;0.70;;;17.60;99.90;;;;;;4997532;28;20209;-62
2022/11/07 11:48:40;;;;;;;0.87;0.87;;;17.50;99.90;;;;;;5008535;28;20197;-63
2022/11/07 11:51:17;;;;;;;0.60;0.60;;;17.50;99.90;;;;;;5004040;28;20227;-63
2022/11/07 11:53:43;;;;;;;0.73;0.73;;;17.50;99.90;;;;;;5002349;28;20205;-63
2022/11/07 11:56:27;;;;;;;0.80;0.80;;;17.50;99.90;;;;;;5005325;28;20206;-62
2022/11/07 11:59:16;;;;;;;0.70;0.70;;;17.50;99.90;;;;;;5006597;28;20308;-63
2022/11/07 12:01:54;;;;;;;0.77;0.77;;;17.50;99.90;;;;;;5002848;28;20225;-64
2022/11/07 12:04:42;;;;;;;0.80;0.80;;;17.40;99.90;;;;;;5004250;28;20296;-63
2022/11/07 12:07:22;;;;;;;0.73;0.73;;;17.40;99.90;;;;;;5005681;28;20657;-61
2022/11/07 12:09:56;;;;;;;1.00;0.80;;;17.40;99.90;;;;;;4999579;28;20193;-62
2022/11/07 12:12:30;;;;;;;0.67;0.67;;;17.30;99.90;;;;;;4998735;28;20201;-62
2022/11/07 12:15:11;;;;;;;0.77;0.77;;;17.30;99.90;;;;;;5004339;28;20204;-63
2022/11/07 12:17:44;;;;;;;0.73;0.70;;;17.30;99.90;;;;;;5002982;28;20680;-63
2022/11/07 12:20:19;;;;;;;0.97;0.70;;;17.20;99.90;;;;;;5004486;28;20229;-63
2022/11/07 12:22:59;;;;;;;0.70;0.70;;;17.20;99.90;;;;;;5003314;28;20291;-62
2022/11/07 12:25:30;;;;;;;0.80;0.80;;;17.20;99.90;;;;;;5003037;28;20664;-62
2022/11/07 12:28:07;;;;;;;0.57;0.57;;;17.30;99.90;;;;;;4999896;28;20687;-62
2022/11/07 12:30:41;;;;;;;0.53;0.53;;;17.30;99.90;;;;;;4996236;28;20257;-62
2022/11/07 12:33:19;;;;;;;0.90;0.90;;;17.20;99.90;;;;;;4998185;28;20276;-62
2022/11/07 12:35:52;;;;;;;0.70;0.70;;;17.20;99.90;;;;;;4998324;28;20653;-61
2022/11/07 12:38:39;;;;;;;0.70;0.70;;;17.30;99.90;;;;;;5004499;28;20720;-64
2022/11/07 12:41:16;;;;;;;0.67;0.67;;;17.30;99.90;;;;;;4999724;28;20228;-61
2022/11/07 12:43:55;;;;;;;1.00;0.90;;;17.30;99.90;;;;;;5003192;28;20285;-64
2022/11/07 12:46:28;;;;;;;0.80;0.80;;;17.30;99.90;;;;;;5003689;28;20259;-61
2022/11/07 12:49:13;;;;;;;1.23;0.73;;;17.20;99.90;;;;;;5001996;28;20229;-62
2022/11/07 12:51:49;;;;;;;0.67;0.67;;;17.20;99.90;;;;;;5005756;28;20236;-62
2022/11/07 12:54:41;;;;;;;0.77;0.77;;;17.10;99.90;;;;;;5005485;28;20296;-60
2022/11/07 12:57:18;;;;;;;0.70;0.70;;;17.20;99.90;;;;;;5008334;28;20204;-63
2022/11/07 12:59:50;;;;;;;0.87;0.87;;;17.10;99.90;;;;;;5013578;28;20224;-64
2022/11/07 13:02:30;;;;;;;0.50;0.50;;;17.10;99.90;;;;;;5004610;28;20201;-61
2022/11/07 13:05:03;;;;;;;0.63;0.63;;;17.10;99.90;;;;;;5006199;28;20197;-63
2022/11/07 13:07:37;;;;;;;0.70;0.70;;;17.20;99.90;;;;;;5001922;28;20758;-62
2022/11/07 13:10:14;;;;;;;0.60;0.60;;;17.20;99.90;;;;;;5004532;28;20208;-63